Time;durP1;ratioP1;P1;durP2;ratioP2;P2;SDS_P1;SDS_P2;PMS_P1;PMS_P2;Temp;Humidity;BMP_temperature;BMP_pressure;BME280_temperature;BME280_humidity;BME280_pressure;Samples;Min_cycle;Max_cycle;Signal;HPM_P1;HPM_P2
2022/06/14 00:00:56;;;;;;;5.00;4.30;;;16.20;83.40;;;;;;5097517;28;20191;-44
2022/06/14 00:03:40;;;;;;;9.40;4.43;;;16.20;84.00;;;;;;5098229;28;20270;-42
2022/06/14 00:06:11;;;;;;;4.77;3.87;;;16.20;84.70;;;;;;5098887;28;20413;-45
2022/06/14 00:08:37;;;;;;;5.73;4.90;;;16.20;85.00;;;;;;5098764;28;20435;-43
2022/06/14 00:11:17;;;;;;;6.40;4.63;;;16.10;85.50;;;;;;5098829;28;20480;-44
2022/06/14 00:13:43;;;;;;;6.20;4.50;;;16.10;85.30;;;;;;5098966;28;20216;-43
2022/06/14 00:16:10;;;;;;;4.83;4.20;;;16.10;85.60;;;;;;5096525;28;20412;-43
2022/06/14 00:18:35;;;;;;;6.53;4.07;;;16.10;86.10;;;;;;5098549;28;20419;-46
2022/06/14 00:21:01;;;;;;;4.80;4.30;;;16.10;85.80;;;;;;5098309;28;20704;-45
2022/06/14 00:23:28;;;;;;;5.57;4.77;;;16.10;85.60;;;;;;5098509;28;20176;-43
2022/06/14 00:25:55;;;;;;;5.93;4.20;;;16.10;85.70;;;;;;5098512;28;20409;-42
2022/06/14 00:28:23;;;;;;;5.93;4.00;;;16.10;86.00;;;;;;5080362;28;20440;-44
2022/06/14 00:30:53;;;;;;;5.70;4.30;;;16.00;86.20;;;;;;5098086;28;20509;-44
2022/06/14 00:33:19;;;;;;;5.30;4.30;;;16.10;86.20;;;;;;5097730;28;20467;-43
2022/06/14 00:35:45;;;;;;;6.47;4.30;;;16.00;86.90;;;;;;5096442;28;20432;-45
2022/06/14 00:38:12;;;;;;;4.70;4.10;;;16.00;87.30;;;;;;5097335;28;20838;-44
2022/06/14 00:40:38;;;;;;;6.80;4.80;;;15.90;88.00;;;;;;5097611;28;20416;-43
2022/06/14 00:43:13;;;;;;;9.13;5.13;;;15.90;87.80;;;;;;5097479;28;20735;-44
2022/06/14 00:45:38;;;;;;;6.27;4.37;;;15.90;88.30;;;;;;5097161;28;20425;-42
2022/06/14 00:48:07;;;;;;;5.67;4.90;;;15.90;88.40;;;;;;5097172;28;20416;-42
2022/06/14 00:50:59;;;;;;;7.60;5.20;;;15.90;87.90;;;;;;5097988;28;20177;-44
2022/06/14 00:53:42;;;;;;;6.87;4.87;;;15.90;88.10;;;;;;5085725;28;20480;-42
2022/06/14 00:56:16;;;;;;;6.67;4.50;;;15.80;88.20;;;;;;5098112;28;20465;-44
2022/06/14 00:58:50;;;;;;;6.70;4.13;;;15.80;88.50;;;;;;5096849;28;20427;-44
2022/06/14 01:01:21;;;;;;;5.30;4.60;;;15.70;88.40;;;;;;5097381;28;20515;-42
2022/06/14 01:03:56;;;;;;;4.73;4.03;;;15.70;89.10;;;;;;5097899;28;20427;-43
2022/06/14 01:06:48;;;;;;;6.40;4.13;;;15.60;89.40;;;;;;5098070;28;20433;-43
2022/06/14 01:09:25;;;;;;;5.00;4.50;;;15.60;89.80;;;;;;5094264;28;20436;-44
2022/06/14 01:12:00;;;;;;;5.23;4.73;;;15.60;90.10;;;;;;5094803;28;20454;-43
2022/06/14 01:14:39;;;;;;;6.50;4.57;;;15.60;90.00;;;;;;5095569;28;20562;-45
2022/06/14 01:17:05;;;;;;;5.90;4.90;;;15.50;90.00;;;;;;5097423;28;20454;-43
2022/06/14 01:19:30;;;;;;;6.27;4.97;;;15.50;90.20;;;;;;5097258;28;20449;-43
2022/06/14 01:22:02;;;;;;;5.20;4.70;;;15.40;90.10;;;;;;5097280;28;20419;-43
2022/06/14 01:24:28;;;;;;;6.70;5.10;;;15.40;90.30;;;;;;5097924;28;20176;-43
2022/06/14 01:26:54;;;;;;;4.53;4.13;;;15.40;90.20;;;;;;5096288;28;20423;-42
2022/06/14 01:29:20;;;;;;;10.00;5.27;;;15.30;90.30;;;;;;5099043;28;20858;-42
2022/06/14 01:31:47;;;;;;;8.57;5.37;;;15.30;90.60;;;;;;5101361;28;20192;-44
2022/06/14 01:34:14;;;;;;;7.40;4.90;;;15.30;90.70;;;;;;5102157;28;20563;-41
2022/06/14 01:36:40;;;;;;;6.30;4.70;;;15.30;90.60;;;;;;5102274;28;20851;-41
2022/06/14 01:39:09;;;;;;;5.23;4.73;;;15.30;90.60;;;;;;5101360;28;20422;-42
2022/06/14 01:41:58;;;;;;;7.33;4.47;;;15.30;90.40;;;;;;5100774;28;20770;-44
2022/06/14 01:44:53;;;;;;;5.93;5.33;;;15.30;90.40;;;;;;5101840;28;20443;-41
2022/06/14 01:47:34;;;;;;;6.40;5.43;;;15.30;90.70;;;;;;5101600;28;20423;-42
2022/06/14 01:53:33;;;;;;;6.03;4.90;;;15.20;90.60;;;;;;5100669;28;20906;-44
2022/06/14 01:56:23;;;;;;;5.33;4.83;;;15.30;90.70;;;;;;5101199;28;20415;-46
2022/06/14 01:58:49;;;;;;;7.50;5.30;;;15.20;90.50;;;;;;5099917;28;20472;-43
2022/06/14 02:01:19;;;;;;;7.03;5.60;;;15.20;90.70;;;;;;5100680;28;20850;-43
2022/06/14 02:07:19;;;;;;;6.37;5.07;;;15.20;90.90;;;;;;5100816;28;20513;-44
2022/06/14 02:09:51;;;;;;;5.87;4.90;;;15.20;91.30;;;;;;5099928;28;20424;-42
2022/06/14 02:12:22;;;;;;;5.27;4.70;;;15.20;90.70;;;;;;5100796;28;20426;-43
2022/06/14 02:14:56;;;;;;;6.37;5.27;;;15.20;90.70;;;;;;5100304;28;20422;-41
2022/06/14 02:17:35;;;;;;;6.27;5.27;;;15.00;91.10;;;;;;5101085;28;20425;-45
2022/06/14 02:20:10;;;;;;;5.80;5.20;;;15.00;91.30;;;;;;5100016;28;20420;-43
2022/06/14 02:22:40;;;;;;;7.43;4.53;;;14.90;91.50;;;;;;5101026;28;20463;-42
2022/06/14 02:25:15;;;;;;;5.70;5.00;;;14.90;91.50;;;;;;5100097;28;20418;-43
2022/06/14 02:27:46;;;;;;;7.63;5.60;;;14.80;91.60;;;;;;5099907;28;20443;-43
2022/06/14 02:30:21;;;;;;;8.83;5.90;;;14.90;91.60;;;;;;5100885;28;20479;-43
2022/06/14 02:32:55;;;;;;;6.33;5.43;;;14.80;91.60;;;;;;5100470;28;20767;-43
2022/06/14 02:35:31;;;;;;;7.10;5.50;;;14.80;91.70;;;;;;5100779;28;20426;-43
2022/06/14 02:38:01;;;;;;;4.93;4.27;;;14.90;91.70;;;;;;5099489;28;20524;-45
2022/06/14 02:40:42;;;;;;;6.57;4.50;;;14.90;91.80;;;;;;5099335;28;20414;-43
2022/06/14 02:43:11;;;;;;;8.30;5.60;;;14.90;91.60;;;;;;5100344;28;20831;-42
2022/06/14 02:45:44;;;;;;;6.00;5.10;;;14.90;91.60;;;;;;5099239;28;20431;-41
2022/06/14 02:48:12;;;;;;;5.40;4.87;;;14.90;91.40;;;;;;5100589;28;20427;-42
2022/06/14 02:51:02;;;;;;;5.60;4.73;;;14.90;91.40;;;;;;5099892;28;20415;-43
2022/06/14 02:53:34;;;;;;;5.60;5.10;;;14.90;91.40;;;;;;5099542;28;20521;-44
2022/06/14 02:56:18;;;;;;;8.80;6.50;;;14.90;91.30;;;;;;5099699;28;20495;-42
2022/06/14 02:58:55;;;;;;;10.73;5.20;;;14.90;91.40;;;;;;5100410;28;20431;-42
2022/06/14 03:01:28;;;;;;;8.50;5.50;;;14.80;91.50;;;;;;5100211;28;20419;-43
2022/06/14 03:04:19;;;;;;;6.97;5.30;;;14.80;91.60;;;;;;5099048;28;20876;-42
2022/06/14 03:06:48;;;;;;;6.50;5.30;;;14.80;91.80;;;;;;5099758;28;20832;-43
2022/06/14 03:09:18;;;;;;;5.87;5.30;;;14.80;91.80;;;;;;5098864;28;20432;-41
2022/06/14 03:11:56;;;;;;;5.80;5.17;;;14.80;91.90;;;;;;5099105;28;20418;-43
2022/06/14 03:14:34;;;;;;;8.17;5.13;;;14.80;91.90;;;;;;5098735;28;20960;-42
2022/06/14 03:17:38;;;;;;;6.47;5.37;;;14.80;91.70;;;;;;5099678;28;20859;-42
2022/06/14 03:20:25;;;;;;;5.40;4.90;;;14.80;91.90;;;;;;5065075;28;20526;-40
2022/06/14 03:23:02;;;;;;;5.87;5.27;;;14.70;91.60;;;;;;5077483;28;20513;-42
2022/06/14 03:25:48;;;;;;;7.33;5.27;;;14.70;91.50;;;;;;5078068;28;20414;-41
2022/06/14 03:28:38;;;;;;;8.70;5.23;;;14.50;92.00;;;;;;5076932;28;20427;-42
2022/06/14 03:31:20;;;;;;;6.30;4.90;;;14.40;92.30;;;;;;5094231;28;20448;-43
2022/06/14 03:33:59;;;;;;;5.60;5.10;;;14.40;92.60;;;;;;5097915;28;20474;-43
2022/06/14 03:36:25;;;;;;;5.47;4.97;;;14.50;92.50;;;;;;5097868;28;20481;-43
2022/06/14 03:39:02;;;;;;;6.90;5.40;;;14.50;92.40;;;;;;5098159;28;20431;-42
2022/06/14 03:41:32;;;;;;;6.13;5.50;;;14.50;92.30;;;;;;5097211;28;20412;-41
2022/06/14 03:44:00;;;;;;;5.80;4.87;;;14.50;92.50;;;;;;5097949;28;20427;-42
2022/06/14 03:46:41;;;;;;;8.00;6.43;;;14.50;92.40;;;;;;5097991;28;20416;-41
2022/06/14 03:49:16;;;;;;;8.20;5.70;;;14.50;92.60;;;;;;5098436;28;20454;-42
2022/06/14 03:51:51;;;;;;;5.57;5.07;;;14.60;92.20;;;;;;5097371;28;20836;-44
2022/06/14 03:54:44;;;;;;;7.40;5.50;;;14.60;92.50;;;;;;5098721;28;20856;-42
2022/06/14 03:57:44;;;;;;;6.70;5.60;;;14.60;92.30;;;;;;5091287;28;20508;-41
2022/06/14 04:00:17;;;;;;;5.50;5.00;;;14.60;92.40;;;;;;5054603;28;20462;-43
2022/06/14 04:02:56;;;;;;;5.83;5.33;;;14.70;92.20;;;;;;5076982;28;20421;-45
2022/06/14 04:05:43;;;;;;;6.40;5.63;;;14.70;92.20;;;;;;5075409;28;20421;-42
2022/06/14 04:08:21;;;;;;;6.20;5.60;;;14.80;92.00;;;;;;5076000;28;20411;-42
2022/06/14 04:10:53;;;;;;;7.03;6.30;;;14.80;91.70;;;;;;5075587;28;20412;-44
2022/06/14 04:13:34;;;;;;;6.00;5.40;;;14.90;91.70;;;;;;5077326;28;20503;-43
2022/06/14 04:16:09;;;;;;;6.10;5.47;;;14.90;91.40;;;;;;5076586;28;20426;-45
2022/06/14 04:18:47;;;;;;;7.23;6.17;;;14.90;91.60;;;;;;5076609;28;20481;-42
2022/06/14 04:21:24;;;;;;;6.60;6.00;;;14.90;91.60;;;;;;5076646;28;20524;-42
2022/06/14 04:24:09;;;;;;;6.97;6.03;;;15.00;91.90;;;;;;5076584;28;20411;-42
2022/06/14 04:26:52;;;;;;;7.60;5.20;;;15.00;91.70;;;;;;5076808;28;20427;-43
2022/06/14 04:29:25;;;;;;;6.23;5.60;;;15.10;91.40;;;;;;5076736;28;20964;-45
2022/06/14 04:31:57;;;;;;;8.77;6.17;;;15.10;91.30;;;;;;5076480;28;20423;-43
2022/06/14 04:34:47;;;;;;;10.30;5.30;;;15.10;91.30;;;;;;5076486;28;20485;-45
2022/06/14 04:37:23;;;;;;;6.00;5.47;;;15.20;91.10;;;;;;5084948;28;20409;-44
2022/06/14 04:40:10;;;;;;;6.93;4.90;;;15.30;90.90;;;;;;5084525;28;20424;-44
2022/06/14 04:42:47;;;;;;;7.10;6.00;;;15.40;90.80;;;;;;5086898;28;20413;-47
2022/06/14 04:45:21;;;;;;;6.20;5.60;;;15.50;90.70;;;;;;5083684;28;20425;-41
2022/06/14 04:48:08;;;;;;;6.70;5.13;;;15.60;90.80;;;;;;5085564;28;20423;-42
2022/06/14 04:50:51;;;;;;;5.40;4.70;;;15.70;90.50;;;;;;5087221;28;20439;-42
2022/06/14 04:53:23;;;;;;;7.00;5.20;;;15.80;90.50;;;;;;5086231;28;20935;-43
2022/06/14 04:55:53;;;;;;;6.40;5.70;;;15.90;90.50;;;;;;5077201;28;20816;-44
2022/06/14 04:58:39;;;;;;;9.67;5.10;;;16.00;90.30;;;;;;5074904;28;20424;-45
2022/06/14 05:01:11;;;;;;;7.43;5.90;;;16.00;90.00;;;;;;5075122;28;20481;-43
2022/06/14 05:03:46;;;;;;;7.97;5.50;;;16.10;88.80;;;;;;5075727;28;20533;-42
2022/06/14 05:06:19;;;;;;;6.80;5.50;;;16.10;89.60;;;;;;5082719;28;20414;-42
2022/06/14 05:08:54;;;;;;;7.20;5.40;;;16.10;90.00;;;;;;5083136;28;20435;-45
2022/06/14 05:11:32;;;;;;;6.37;5.63;;;16.20;90.00;;;;;;5083146;28;20427;-42
2022/06/14 05:14:06;;;;;;;7.33;6.33;;;16.30;89.50;;;;;;5083689;28;20456;-45
2022/06/14 05:16:45;;;;;;;6.43;5.87;;;16.40;88.20;;;;;;5083114;28;20756;-45
2022/06/14 05:19:40;;;;;;;7.27;5.93;;;16.30;88.30;;;;;;5084239;28;20428;-43
2022/06/14 05:22:18;;;;;;;6.93;6.23;;;16.30;88.90;;;;;;5070012;28;20478;-43
2022/06/14 05:24:44;;;;;;;8.50;6.50;;;16.40;89.20;;;;;;5084059;28;20454;-43
2022/06/14 05:27:46;;;;;;;7.43;6.73;;;16.40;88.80;;;;;;5083166;28;20416;-45
2022/06/14 05:30:27;;;;;;;6.90;5.70;;;16.50;88.40;;;;;;5084183;28;20360;-42
2022/06/14 05:33:24;;;;;;;7.27;5.93;;;16.60;87.60;;;;;;5084462;28;20473;-43
2022/06/14 05:36:01;;;;;;;11.40;6.80;;;16.60;87.50;;;;;;5082575;28;20413;-44
2022/06/14 05:38:51;;;;;;;10.50;7.17;;;16.70;87.60;;;;;;5086984;28;20432;-46
2022/06/14 05:41:31;;;;;;;8.67;7.87;;;16.90;87.10;;;;;;5082814;28;20432;-46
2022/06/14 05:44:24;;;;;;;9.90;6.27;;;16.90;86.60;;;;;;5080050;28;20435;-45
2022/06/14 05:46:52;;;;;;;7.20;6.50;;;16.90;86.90;;;;;;5072347;28;20502;-44
2022/06/14 05:49:20;;;;;;;9.63;6.17;;;17.00;86.60;;;;;;5083252;28;20502;-47
2022/06/14 05:52:05;;;;;;;7.93;5.77;;;17.00;86.70;;;;;;5083282;28;20424;-44
2022/06/14 05:54:35;;;;;;;9.80;5.43;;;17.10;86.80;;;;;;5084003;28;20920;-43
2022/06/14 05:57:21;;;;;;;7.70;6.23;;;17.40;86.60;;;;;;5078925;28;20835;-44
2022/06/14 06:00:05;;;;;;;8.20;5.97;;;17.60;85.30;;;;;;5074116;28;20573;-44
2022/06/14 06:02:40;;;;;;;8.23;6.20;;;17.90;84.60;;;;;;5072787;28;20420;-44
2022/06/14 06:05:20;;;;;;;5.90;5.00;;;18.20;83.30;;;;;;5073536;28;20410;-42
2022/06/14 06:08:09;;;;;;;7.67;5.40;;;18.40;82.70;;;;;;5070835;28;20427;-42
2022/06/14 06:10:39;;;;;;;8.50;5.70;;;18.60;81.80;;;;;;5062999;28;20508;-44
2022/06/14 06:13:25;;;;;;;7.43;6.57;;;18.80;80.80;;;;;;5071514;28;20568;-41
2022/06/14 06:15:54;;;;;;;7.77;5.67;;;18.90;79.90;;;;;;5074837;28;20685;-43
2022/06/14 06:18:44;;;;;;;5.23;4.73;;;19.00;79.30;;;;;;5076671;28;20717;-46
2022/06/14 06:21:15;;;;;;;10.80;6.73;;;19.10;78.30;;;;;;5075923;28;20432;-44
2022/06/14 06:23:50;;;;;;;6.20;4.73;;;19.20;78.30;;;;;;5092532;28;20462;-44
2022/06/14 06:26:18;;;;;;;9.07;6.20;;;19.30;76.80;;;;;;5097063;28;20481;-45
2022/06/14 06:28:49;;;;;;;7.50;5.83;;;19.40;77.10;;;;;;5096192;28;20530;-42
2022/06/14 06:31:26;;;;;;;13.40;6.60;;;19.50;74.90;;;;;;5077628;28;20855;-41
2022/06/14 06:33:54;;;;;;;9.50;5.97;;;19.50;72.00;;;;;;5093801;28;20534;-41
2022/06/14 06:36:59;;;;;;;9.60;6.67;;;19.40;72.80;;;;;;5093893;28;20415;-43
2022/06/14 06:39:51;;;;;;;7.60;5.73;;;19.40;73.40;;;;;;5090608;28;20501;-43
2022/06/14 06:42:38;;;;;;;8.57;6.40;;;19.60;71.60;;;;;;5095884;28;20809;-45
2022/06/14 06:45:06;;;;;;;7.73;5.77;;;19.70;72.70;;;;;;5096543;28;20414;-44
2022/06/14 06:47:36;;;;;;;6.27;5.67;;;19.90;71.00;;;;;;5097203;28;20434;-44
2022/06/14 06:50:27;;;;;;;8.20;5.90;;;20.10;71.90;;;;;;5097730;28;20422;-44
2022/06/14 06:53:05;;;;;;;6.10;5.50;;;20.40;72.00;;;;;;5096997;28;20507;-44
2022/06/14 06:56:04;;;;;;;7.20;6.03;;;20.70;70.30;;;;;;5096955;28;20419;-43
2022/06/14 06:58:31;;;;;;;8.20;6.13;;;20.90;68.80;;;;;;5096134;28;20882;-44
2022/06/14 07:00:59;;;;;;;8.73;6.30;;;21.00;66.90;;;;;;5095110;28;20418;-44
2022/06/14 07:03:37;;;;;;;10.13;6.53;;;21.10;66.50;;;;;;5097843;28;20476;-48
2022/06/14 07:06:04;;;;;;;7.63;5.97;;;21.20;65.60;;;;;;5098272;28;20456;-47
2022/06/14 07:08:52;;;;;;;7.60;5.20;;;21.20;65.60;;;;;;5095877;28;20913;-48
2022/06/14 07:11:20;;;;;;;5.53;5.03;;;21.30;63.80;;;;;;5096270;28;20858;-46
2022/06/14 07:13:54;;;;;;;7.03;5.60;;;21.20;64.00;;;;;;5095817;28;20473;-47
2022/06/14 07:16:32;;;;;;;8.93;5.40;;;21.20;63.80;;;;;;5094312;28;20422;-48
2022/06/14 07:19:12;;;;;;;6.47;5.80;;;21.30;63.10;;;;;;5094249;28;20650;-46
2022/06/14 07:21:43;;;;;;;7.27;5.33;;;21.30;62.20;;;;;;5091476;28;20422;-45
2022/06/14 07:24:50;;;;;;;6.87;5.03;;;21.50;64.60;;;;;;5092088;28;20936;-47
2022/06/14 07:27:18;;;;;;;10.50;6.20;;;21.80;63.20;;;;;;5081451;28;20637;-47
2022/06/14 07:29:54;;;;;;;4.80;4.20;;;22.30;62.50;;;;;;5092744;28;20485;-46
2022/06/14 07:32:27;;;;;;;6.47;5.53;;;22.60;62.60;;;;;;5093172;28;20439;-46
2022/06/14 07:34:53;;;;;;;5.60;5.10;;;22.90;61.50;;;;;;5093424;28;20418;-45
2022/06/14 07:37:28;;;;;;;7.23;5.33;;;23.20;60.40;;;;;;5091508;28;20418;-45
2022/06/14 07:40:02;;;;;;;5.53;4.83;;;23.50;59.10;;;;;;5093669;28;20503;-49
2022/06/14 07:42:54;;;;;;;7.80;5.57;;;23.70;59.00;;;;;;5093927;28;20882;-48
2022/06/14 07:45:28;;;;;;;6.33;5.27;;;23.70;58.60;;;;;;5092676;28;20402;-48
2022/06/14 07:48:05;;;;;;;8.33;5.63;;;23.80;58.90;;;;;;5093354;28;20774;-46
2022/06/14 07:50:43;;;;;;;7.43;5.60;;;24.00;58.20;;;;;;5094654;28;20410;-48
2022/06/14 07:53:32;;;;;;;6.07;4.90;;;24.10;56.90;;;;;;5093791;28;20469;-46
2022/06/14 07:55:58;;;;;;;7.37;5.13;;;24.30;57.20;;;;;;5094832;28;20489;-46
2022/06/14 07:58:37;;;;;;;7.50;5.17;;;24.50;55.90;;;;;;5095636;28;20425;-47
2022/06/14 08:01:22;;;;;;;7.33;5.40;;;24.70;55.30;;;;;;5094749;28;20172;-47
2022/06/14 08:03:55;;;;;;;7.00;5.40;;;24.90;54.90;;;;;;5093869;28;20417;-48
2022/06/14 08:06:33;;;;;;;6.10;4.70;;;24.90;54.40;;;;;;5090780;28;20600;-48
2022/06/14 08:09:31;;;;;;;9.37;4.80;;;25.00;54.50;;;;;;5091262;28;20851;-49
2022/06/14 08:11:59;;;;;;;6.10;5.27;;;25.30;54.80;;;;;;5086763;28;20729;-48
2022/06/14 08:14:55;;;;;;;7.90;5.00;;;25.50;52.20;;;;;;5091675;28;20741;-46
2022/06/14 08:17:41;;;;;;;7.20;4.77;;;25.60;51.30;;;;;;5059857;28;20529;-48
2022/06/14 08:20:37;;;;;;;5.53;4.67;;;25.90;51.70;;;;;;5091545;28;20419;-47
2022/06/14 08:23:08;;;;;;;6.40;4.73;;;26.20;52.00;;;;;;5068803;28;20456;-50
2022/06/14 08:25:36;;;;;;;6.10;4.80;;;26.40;50.90;;;;;;5089872;28;20950;-48
2022/06/14 08:28:13;;;;;;;7.83;5.43;;;26.50;48.90;;;;;;5091326;28;20853;-53
2022/06/14 08:30:45;;;;;;;7.60;5.43;;;26.10;49.20;;;;;;5076103;28;20570;-49
2022/06/14 08:33:20;;;;;;;5.87;5.27;;;26.00;49.50;;;;;;5074657;28;20558;-52
2022/06/14 08:35:53;;;;;;;5.00;4.50;;;26.10;48.80;;;;;;5074250;28;20859;-51
2022/06/14 08:38:24;;;;;;;5.30;4.80;;;26.00;49.30;;;;;;5072494;28;20421;-51
2022/06/14 08:41:28;;;;;;;5.23;4.70;;;26.10;49.70;;;;;;5071039;28;20408;-47
2022/06/14 08:44:21;;;;;;;5.90;5.13;;;26.30;49.50;;;;;;5063765;28;20865;-49
2022/06/14 08:47:07;;;;;;;7.70;5.40;;;26.50;50.50;;;;;;5069517;28;20428;-50
2022/06/14 08:49:51;;;;;;;8.70;5.17;;;26.70;48.90;;;;;;5073623;28;20557;-47
2022/06/14 08:52:36;;;;;;;7.73;5.50;;;27.00;47.70;;;;;;5071516;28;20437;-48
2022/06/14 08:55:03;;;;;;;6.30;4.77;;;27.20;47.20;;;;;;5073984;28;20445;-52
2022/06/14 08:57:31;;;;;;;5.47;4.97;;;27.20;45.30;;;;;;5072920;28;20502;-50
2022/06/14 09:00:04;;;;;;;7.47;4.33;;;27.00;46.10;;;;;;5072848;28;20416;-51
2022/06/14 09:02:58;;;;;;;7.20;4.70;;;27.00;45.00;;;;;;5072522;28;20445;-51
2022/06/14 09:05:53;;;;;;;5.27;4.80;;;26.70;45.40;;;;;;5074494;28;20419;-49
2022/06/14 09:08:18;;;;;;;7.10;6.40;;;26.20;45.60;;;;;;5072312;28;20434;-51
2022/06/14 09:11:03;;;;;;;12.17;8.80;;;26.20;46.30;;;;;;5074251;28;20421;-48
2022/06/14 09:13:47;;;;;;;10.50;6.60;;;26.40;45.80;;;;;;5074444;28;20209;-48
2022/06/14 09:16:34;;;;;;;5.77;5.07;;;26.60;44.10;;;;;;5074391;28;20749;-51
2022/06/14 09:19:18;;;;;;;5.70;5.10;;;26.80;45.00;;;;;;5072808;28;20484;-51
2022/06/14 09:22:13;;;;;;;7.27;5.00;;;27.20;45.70;;;;;;5070631;28;20415;-47
2022/06/14 09:24:51;;;;;;;6.10;4.90;;;27.60;45.50;;;;;;5073346;28;20408;-52
2022/06/14 09:27:44;;;;;;;5.53;5.03;;;28.10;43.20;;;;;;5072681;28;20431;-52
2022/06/14 09:30:21;;;;;;;6.17;5.10;;;28.40;42.80;;;;;;5074032;28;20464;-50
2022/06/14 09:36:04;;;;;;;5.07;4.57;;;29.00;43.80;;;;;;5073906;28;20511;-51
2022/06/14 09:39:00;;;;;;;6.13;4.50;;;29.20;42.50;;;;;;5072539;28;20424;-51
2022/06/14 09:41:45;;;;;;;5.00;4.20;;;29.30;41.80;;;;;;5070545;28;20674;-51
2022/06/14 09:44:19;;;;;;;6.40;4.30;;;29.20;39.80;;;;;;5071197;28;20431;-49
2022/06/14 09:47:06;;;;;;;4.50;3.70;;;29.10;41.20;;;;;;5073647;28;20731;-48
2022/06/14 09:49:42;;;;;;;5.20;3.70;;;29.20;41.60;;;;;;5074764;28;20517;-49
2022/06/14 09:52:18;;;;;;;5.73;4.40;;;29.60;42.10;;;;;;5076990;28;20481;-49
2022/06/14 09:55:12;;;;;;;5.70;4.03;;;29.90;40.30;;;;;;5075990;28;20493;-51
2022/06/14 09:58:07;;;;;;;5.13;4.27;;;30.10;42.20;;;;;;5076056;28;20424;-53
2022/06/14 10:00:54;;;;;;;5.00;4.47;;;30.00;38.30;;;;;;5073240;28;20403;-49
2022/06/14 10:03:23;;;;;;;4.40;3.90;;;30.00;39.00;;;;;;5076146;28;20422;-50
2022/06/14 10:06:20;;;;;;;6.73;4.67;;;30.10;38.80;;;;;;5076317;28;20403;-53
2022/06/14 10:09:10;;;;;;;4.80;4.30;;;30.00;38.40;;;;;;5074655;28;20431;-49
2022/06/14 10:12:11;;;;;;;6.00;4.00;;;30.20;39.70;;;;;;5075532;28;20771;-53
2022/06/14 10:15:01;;;;;;;5.33;4.00;;;30.30;38.70;;;;;;5074756;28;20463;-50
2022/06/14 10:17:58;;;;;;;7.53;4.40;;;30.20;39.50;;;;;;5076178;28;20503;-49
2022/06/14 10:20:35;;;;;;;6.83;4.27;;;30.10;36.70;;;;;;5076412;28;20838;-49
2022/06/14 10:23:06;;;;;;;6.20;4.27;;;30.00;38.50;;;;;;5074266;28;20555;-50
2022/06/14 10:28:11;;;;;;;6.53;4.20;;;29.70;36.60;;;;;;5076020;28;20532;-51
2022/06/14 10:28:38;;;;;;;4.30;3.90;;;29.00;36.50;;;;;;5075514;28;20424;-49
2022/06/14 10:31:10;;;;;;;3.97;3.30;;;28.80;37.50;;;;;;5078456;28;20467;-49
2022/06/14 10:33:48;;;;;;;4.20;3.40;;;29.20;37.70;;;;;;5075883;28;20559;-49
2022/06/14 10:36:20;;;;;;;8.03;3.90;;;29.40;35.60;;;;;;5075076;28;20838;-55
2022/06/14 10:39:17;;;;;;;5.23;4.07;;;29.30;35.90;;;;;;5073279;28;20440;-51
2022/06/14 10:42:11;;;;;;;6.50;3.53;;;28.80;37.00;;;;;;5076416;28;20491;-50
2022/06/14 10:44:58;;;;;;;7.40;3.67;;;29.10;39.50;;;;;;5076155;28;20999;-50
2022/06/14 10:48:09;;;;;;;4.10;3.70;;;29.90;38.50;;;;;;5077350;28;20418;-51
2022/06/14 10:50:58;;;;;;;5.50;3.50;;;30.80;36.30;;;;;;5067707;28;20694;-50
2022/06/14 10:53:42;;;;;;;4.20;3.60;;;31.20;35.60;;;;;;5074769;28;20903;-53
2022/06/14 10:56:26;;;;;;;5.27;3.60;;;31.30;35.20;;;;;;5075472;28;20417;-52
2022/06/14 10:59:25;;;;;;;3.90;3.50;;;31.50;34.10;;;;;;5074202;28;20427;-50
2022/06/14 11:01:53;;;;;;;5.07;4.00;;;31.50;34.80;;;;;;5059111;28;20449;-50
2022/06/14 11:04:28;;;;;;;4.87;4.13;;;31.70;35.80;;;;;;5073985;28;20422;-48
2022/06/14 11:07:12;;;;;;;4.20;3.60;;;31.80;34.60;;;;;;5075225;28;20433;-51
2022/06/14 11:09:59;;;;;;;5.30;4.13;;;31.20;34.70;;;;;;5074333;28;20429;-51
2022/06/14 11:12:28;;;;;;;4.70;4.20;;;30.80;33.90;;;;;;5074458;28;20436;-51
2022/06/14 11:15:12;;;;;;;4.37;3.70;;;31.00;37.20;;;;;;5072851;28;20558;-50
2022/06/14 11:18:10;;;;;;;7.50;4.00;;;31.50;35.80;;;;;;5072591;28;20400;-54
2022/06/14 11:21:06;;;;;;;5.33;3.27;;;32.20;35.30;;;;;;5073098;28;20739;-53
2022/06/14 11:23:56;;;;;;;4.80;4.30;;;32.80;33.30;;;;;;5076352;28;20433;-52
2022/06/14 11:26:40;;;;;;;8.90;5.27;;;32.70;32.60;;;;;;5075908;28;20395;-50
2022/06/14 11:29:31;;;;;;;4.40;3.80;;;32.20;32.50;;;;;;5074714;28;20446;-47
2022/06/14 11:32:03;;;;;;;3.57;3.27;;;32.00;34.30;;;;;;5073264;28;20413;-52
2022/06/14 11:34:50;;;;;;;5.30;4.20;;;32.20;34.00;;;;;;5075859;28;21321;-48
2022/06/14 11:37:57;;;;;;;4.60;4.03;;;32.10;34.60;;;;;;5075954;28;20514;-53
2022/06/14 11:40:29;;;;;;;4.23;3.83;;;32.60;33.20;;;;;;5057842;28;20409;-50
2022/06/14 11:43:16;;;;;;;5.40;4.00;;;32.50;32.00;;;;;;5073523;28;20792;-50
2022/06/14 11:45:46;;;;;;;4.10;3.30;;;32.60;33.90;;;;;;5073993;28;20876;-51
2022/06/14 11:48:20;;;;;;;6.37;3.53;;;33.10;34.60;;;;;;5073132;28;20796;-54
2022/06/14 11:51:13;;;;;;;3.60;3.13;;;33.50;31.20;;;;;;5072413;28;20408;-50
2022/06/14 11:53:51;;;;;;;6.00;3.30;;;33.80;32.60;;;;;;5070611;28;20477;-48
2022/06/14 11:56:17;;;;;;;5.67;4.30;;;33.30;30.20;;;;;;5071422;28;20398;-53
2022/06/14 11:59:14;;;;;;;4.13;3.73;;;33.00;30.60;;;;;;5072200;28;20772;-54
2022/06/14 12:01:54;;;;;;;4.23;3.40;;;32.70;30.40;;;;;;5074298;28;20779;-49
2022/06/14 12:04:34;;;;;;;3.63;3.13;;;32.50;30.20;;;;;;5074908;28;20765;-49
2022/06/14 12:07:09;;;;;;;3.83;3.00;;;32.70;30.80;;;;;;5074925;28;20427;-53
2022/06/14 12:09:55;;;;;;;4.47;3.17;;;33.30;32.10;;;;;;5074796;28;20800;-52
2022/06/14 12:12:27;;;;;;;3.23;2.93;;;33.60;29.50;;;;;;5073902;28;20832;-54
2022/06/14 12:14:58;;;;;;;3.53;2.80;;;33.90;30.10;;;;;;5075128;28;20950;-51
2022/06/14 12:17:32;;;;;;;3.33;3.03;;;34.20;29.70;;;;;;5073129;28;20486;-49
2022/06/14 12:20:10;;;;;;;4.10;3.50;;;34.60;30.00;;;;;;5072251;28;20791;-53
2022/06/14 12:22:50;;;;;;;4.33;3.13;;;35.00;29.30;;;;;;5071550;28;20703;-53
2022/06/14 12:28:30;;;;;;;4.23;3.50;;;34.10;29.70;;;;;;5072688;28;20440;-52
2022/06/14 12:31:03;;;;;;;3.60;3.20;;;34.60;29.20;;;;;;5072019;28;20453;-51
2022/06/14 12:33:39;;;;;;;4.10;3.10;;;34.70;27.90;;;;;;5072426;28;20583;-52
2022/06/14 12:36:15;;;;;;;3.27;2.97;;;34.50;28.30;;;;;;5074141;28;20402;-48
2022/06/14 12:38:41;;;;;;;6.83;2.77;;;34.20;28.70;;;;;;5073516;28;20401;-53
2022/06/14 12:41:11;;;;;;;3.67;3.37;;;34.20;29.50;;;;;;5071278;28;20522;-55
2022/06/14 12:43:58;;;;;;;3.70;2.70;;;34.20;27.50;;;;;;5072238;28;20508;-51
2022/06/14 12:46:28;;;;;;;2.80;2.60;;;33.70;28.30;;;;;;5074253;28;20401;-50
2022/06/14 12:49:02;;;;;;;6.37;3.60;;;33.80;27.90;;;;;;5075198;28;20480;-50
2022/06/14 12:51:49;;;;;;;4.90;2.93;;;33.70;28.20;;;;;;5074812;28;20400;-53
2022/06/14 12:54:33;;;;;;;3.40;3.10;;;33.90;29.30;;;;;;5073565;28;20445;-49
2022/06/14 12:57:14;;;;;;;5.47;3.03;;;34.40;28.40;;;;;;5072928;28;20431;-49
2022/06/14 12:59:57;;;;;;;3.93;3.30;;;34.90;28.70;;;;;;5072337;28;20665;-49
2022/06/14 13:02:38;;;;;;;3.10;2.80;;;35.10;28.50;;;;;;5073737;28;20389;-51
2022/06/14 13:05:10;;;;;;;5.30;3.37;;;35.40;28.90;;;;;;5073519;28;20406;-51
2022/06/14 13:08:09;;;;;;;3.30;2.90;;;35.80;28.70;;;;;;5075399;28;20387;-51
2022/06/14 13:10:50;;;;;;;4.47;3.00;;;36.10;27.50;;;;;;5075425;28;20453;-53
2022/06/14 13:13:49;;;;;;;3.40;3.00;;;35.90;26.80;;;;;;5074786;28;20626;-56
2022/06/14 13:16:21;;;;;;;4.60;3.60;;;35.60;26.90;;;;;;5075111;28;20421;-51
2022/06/14 13:18:56;;;;;;;3.07;2.67;;;34.50;27.40;;;;;;5074900;28;20391;-51
2022/06/14 13:21:31;;;;;;;5.03;3.33;;;34.10;28.10;;;;;;5075831;28;20508;-49
2022/06/14 13:24:12;;;;;;;3.47;3.10;;;33.90;28.10;;;;;;5076337;28;20401;-53
2022/06/14 13:27:15;;;;;;;3.70;3.07;;;33.70;27.90;;;;;;5078771;28;20434;-49
2022/06/14 13:30:12;;;;;;;5.57;3.47;;;33.40;29.00;;;;;;5078722;28;20495;-52
2022/06/14 13:33:23;;;;;;;4.50;3.17;;;33.90;29.10;;;;;;5075867;28;20390;-55
2022/06/14 13:36:13;;;;;;;4.50;3.33;;;33.80;25.30;;;;;;5078360;28;20398;-49
2022/06/14 13:39:02;;;;;;;4.47;3.10;;;33.70;27.60;;;;;;5074568;28;20408;-52
2022/06/14 13:42:00;;;;;;;5.83;3.33;;;33.70;27.60;;;;;;5076221;28;20423;-50
2022/06/14 13:44:48;;;;;;;4.93;3.33;;;33.70;29.50;;;;;;5075210;28;20404;-49
2022/06/14 13:47:38;;;;;;;4.70;3.90;;;34.30;30.10;;;;;;5077106;28;20554;-49
2022/06/14 13:50:32;;;;;;;8.60;3.67;;;35.00;29.90;;;;;;5076609;28;20406;-53
2022/06/14 13:53:10;;;;;;;3.73;3.43;;;35.50;28.10;;;;;;5078012;28;20437;-53
2022/06/14 13:56:08;;;;;;;3.57;3.07;;;34.90;28.00;;;;;;5074752;28;20809;-52
2022/06/14 13:58:47;;;;;;;4.00;3.60;;;33.80;27.80;;;;;;5073927;28;20398;-50
2022/06/14 14:01:15;;;;;;;5.73;3.93;;;33.00;28.50;;;;;;5076188;28;20406;-53